createdAt,value
2019-05-28T00:01:47.735Z,15.40
2019-05-28T00:04:17.160Z,15.40
2019-05-28T00:06:46.597Z,15.40
2019-05-28T00:09:16.054Z,15.40
2019-05-28T00:11:45.548Z,15.40
2019-05-28T00:14:15.118Z,15.40
2019-05-28T00:16:44.619Z,15.40
2019-05-28T00:19:14.007Z,15.40
2019-05-28T00:21:43.504Z,15.40
2019-05-28T00:24:15.692Z,15.40
2019-05-28T00:26:45.133Z,15.40
2019-05-28T00:29:17.908Z,15.40
2019-05-28T00:31:47.800Z,15.40
2019-05-28T00:34:17.229Z,15.40
2019-05-28T00:36:46.564Z,15.40
2019-05-28T00:39:19.038Z,15.40
2019-05-28T00:41:48.584Z,15.40
2019-05-28T00:44:18.207Z,15.40
2019-05-28T00:46:47.646Z,15.40
2019-05-28T00:49:20.322Z,15.40
2019-05-28T00:51:50.453Z,15.50
2019-05-28T00:54:19.876Z,15.50
2019-05-28T00:56:50.159Z,15.50
2019-05-28T00:59:21.194Z,15.40
2019-05-28T01:01:50.858Z,15.40
2019-05-28T01:04:24.036Z,15.40
2019-05-28T01:07:00.633Z,15.40
2019-05-28T01:09:30.234Z,15.40
2019-05-28T01:11:59.708Z,15.50
2019-05-28T01:14:29.511Z,15.40
2019-05-28T01:16:59.261Z,15.40
2019-05-28T01:19:35.173Z,15.40
2019-05-28T01:22:04.603Z,15.40
2019-05-28T01:24:48.088Z,15.40
2019-05-28T01:27:19.929Z,15.40
2019-05-28T01:29:49.382Z,15.40
2019-05-28T01:32:23.880Z,15.40
2019-05-28T01:34:53.211Z,15.30
2019-05-28T01:37:22.974Z,15.30
2019-05-28T01:39:52.472Z,15.30
2019-05-28T01:42:25.246Z,15.40
2019-05-28T01:44:58.717Z,15.30
2019-05-28T01:48:21.255Z,15.30
2019-05-28T01:50:50.849Z,15.40
2019-05-28T01:53:20.378Z,15.30
2019-05-28T01:55:49.825Z,15.30
2019-05-28T01:58:20.059Z,15.30
2019-05-28T02:00:49.570Z,15.30
2019-05-28T02:03:23.200Z,15.30
2019-05-28T02:05:52.683Z,15.30
2019-05-28T02:08:25.323Z,15.20
2019-05-28T02:10:54.934Z,15.20
2019-05-28T02:13:26.403Z,15.30
2019-05-28T02:15:55.546Z,15.30
2019-05-28T02:18:25.103Z,15.20
2019-05-28T02:20:54.657Z,15.20
2019-05-28T02:23:27.423Z,15.20
2019-05-28T02:25:56.849Z,15.20
2019-05-28T02:28:45.344Z,15.20
2019-05-28T02:31:26.841Z,15.20
2019-05-28T02:33:45.804Z,15.20
2019-05-28T02:36:15.209Z,15.20
2019-05-28T02:38:44.649Z,15.20
2019-05-28T02:41:14.012Z,15.20
2019-05-28T02:43:43.434Z,15.20
2019-05-28T02:46:12.802Z,15.20
2019-05-28T02:48:42.161Z,15.20
2019-05-28T02:51:12.321Z,15.20
2019-05-28T02:53:41.971Z,15.30
2019-05-28T02:56:14.787Z,15.20
2019-05-28T02:58:45.478Z,15.20
2019-05-28T03:01:14.918Z,15.20
2019-05-28T03:03:47.194Z,15.10
2019-05-28T03:06:17.517Z,15.10
2019-05-28T03:08:51.537Z,15.10
2019-05-28T03:11:21.291Z,15.10
2019-05-28T03:13:56.836Z,15.20
2019-05-28T03:17:00.704Z,15.20
2019-05-28T03:19:31.363Z,15.20
2019-05-28T03:22:03.447Z,15.20
2019-05-28T03:24:35.582Z,15.20
2019-05-28T03:27:05.146Z,15.20
2019-05-28T03:29:34.640Z,15.20
2019-05-28T03:32:07.900Z,15.20
2019-05-28T03:34:35.205Z,15.20
2019-05-28T03:37:05.030Z,15.20
2019-05-28T03:39:37.052Z,15.30
2019-05-28T03:42:06.390Z,15.30
2019-05-28T03:44:35.756Z,15.20
2019-05-28T03:47:05.161Z,15.20
2019-05-28T03:49:34.827Z,15.20
2019-05-28T03:52:04.301Z,15.20
2019-05-28T03:54:33.693Z,15.20
2019-05-28T03:57:03.054Z,15.20
2019-05-28T03:59:32.840Z,15.20
2019-05-28T04:02:02.451Z,15.20
2019-05-28T04:04:32.037Z,15.20
2019-05-28T04:07:07.698Z,15.20
2019-05-28T04:09:40.782Z,15.20
2019-05-28T04:12:18.389Z,15.30
2019-05-28T04:15:11.970Z,15.20
2019-05-28T04:17:41.598Z,15.20
2019-05-28T04:20:15.747Z,15.30
2019-05-28T04:22:59.320Z,15.40
2019-05-28T04:25:44.771Z,15.30
2019-05-28T04:28:11.829Z,15.20
2019-05-28T04:30:41.341Z,15.20
2019-05-28T04:33:11.667Z,15.10
2019-05-28T04:38:38.395Z,15.20
2019-05-28T04:41:24.535Z,15.20
2019-05-28T04:43:54.031Z,15.20
2019-05-28T04:46:23.490Z,15.20
2019-05-28T04:48:53.004Z,15.30
2019-05-28T04:51:22.456Z,15.30
2019-05-28T04:53:52.000Z,15.20
2019-05-28T04:56:21.468Z,15.20
2019-05-28T04:58:50.915Z,15.20
2019-05-28T05:01:20.392Z,15.20
2019-05-28T05:03:49.902Z,15.40
2019-05-28T05:06:19.348Z,15.30
2019-05-28T05:08:49.675Z,15.30
2019-05-28T05:11:19.249Z,15.30
2019-05-28T05:13:48.851Z,15.30
2019-05-28T05:16:18.274Z,15.30
2019-05-28T05:18:47.810Z,15.20
2019-05-28T05:21:17.334Z,15.20
2019-05-28T05:23:46.859Z,15.20
2019-05-28T05:26:16.393Z,15.20
2019-05-28T05:28:45.937Z,15.10
2019-05-28T05:31:15.474Z,15.10
2019-05-28T05:33:45.031Z,15.10
2019-05-28T05:36:14.620Z,15.10
2019-05-28T05:38:44.289Z,15.20
2019-05-28T05:41:13.748Z,15.20
2019-05-28T05:43:43.229Z,15.30
2019-05-28T05:46:12.734Z,15.20
2019-05-28T05:48:42.691Z,15.20
2019-05-28T05:51:12.196Z,15.20
2019-05-28T05:53:41.770Z,15.20
2019-05-28T05:56:11.236Z,15.10
2019-05-28T05:58:41.019Z,15.20
2019-05-28T06:01:10.484Z,15.10
2019-05-28T06:03:41.700Z,15.10
2019-05-28T06:06:11.221Z,15.10
2019-05-28T06:08:40.747Z,15.10
2019-05-28T06:11:10.215Z,15.00
2019-05-28T06:13:40.117Z,15.00
2019-05-28T06:16:09.665Z,15.00
2019-05-28T06:18:39.156Z,15.00
2019-05-28T06:21:15.087Z,15.00
2019-05-28T06:23:39.946Z,15.00
2019-05-28T06:26:09.507Z,15.00
2019-05-28T06:28:39.029Z,15.00
2019-05-28T06:31:08.575Z,14.90
2019-05-28T06:33:38.152Z,14.90
2019-05-28T06:36:07.639Z,15.00
2019-05-28T06:38:37.073Z,15.00
2019-05-28T06:41:06.628Z,14.80
2019-05-28T06:43:36.178Z,14.80
2019-05-28T06:46:06.290Z,14.80
2019-05-28T06:48:35.876Z,14.80
2019-05-28T06:51:05.438Z,14.80
2019-05-28T06:53:34.965Z,14.80
2019-05-28T06:56:04.483Z,14.80
2019-05-28T06:58:39.528Z,14.70
2019-05-28T07:01:05.475Z,14.70
2019-05-28T07:03:35.167Z,14.70
2019-05-28T07:06:07.685Z,14.70
2019-05-28T07:08:35.864Z,14.70
2019-05-28T07:11:05.379Z,14.80
2019-05-28T07:13:34.913Z,14.80
2019-05-28T07:16:04.347Z,14.90
2019-05-28T07:18:33.862Z,15.00
2019-05-28T07:21:03.417Z,15.10
2019-05-28T07:23:32.926Z,15.10
2019-05-28T07:26:02.403Z,15.20
2019-05-28T07:28:31.915Z,15.20
2019-05-28T07:31:01.382Z,15.30
2019-05-28T07:33:34.826Z,15.30
2019-05-28T07:36:02.007Z,15.40
2019-05-28T07:38:31.523Z,15.50
2019-05-28T07:41:01.044Z,15.50
2019-05-28T07:43:30.494Z,15.50
2019-05-28T07:46:00.019Z,15.70
2019-05-28T07:48:29.546Z,15.60
2019-05-28T07:50:59.060Z,15.70
2019-05-28T07:53:39.252Z,15.70
2019-05-28T07:55:59.951Z,15.70
2019-05-28T07:58:29.496Z,15.70
2019-05-28T08:00:58.965Z,15.80
2019-05-28T08:03:28.470Z,15.80
2019-05-28T08:05:57.974Z,15.90
2019-05-28T08:08:27.956Z,15.90
2019-05-28T08:10:57.458Z,16.00
2019-05-28T08:13:40.327Z,16.00
2019-05-28T08:16:16.833Z,16.00
2019-05-28T08:18:29.420Z,16.10
2019-05-28T08:20:58.943Z,16.20
2019-05-28T08:23:28.387Z,16.30
2019-05-28T08:26:01.511Z,16.30
2019-05-28T08:28:29.107Z,16.40
2019-05-28T08:31:14.152Z,16.40
2019-05-28T08:33:33.123Z,16.50
2019-05-28T08:36:02.735Z,16.50
2019-05-28T08:38:32.180Z,16.50
2019-05-28T08:41:01.700Z,16.60
2019-05-28T08:43:31.152Z,16.60
2019-05-28T08:46:00.668Z,16.60
2019-05-28T08:48:30.268Z,16.70
2019-05-28T08:50:59.782Z,16.70
2019-05-28T08:53:29.753Z,16.80
2019-05-28T08:55:59.378Z,16.80
2019-05-28T08:58:28.981Z,16.90
2019-05-28T09:00:58.603Z,17.00
2019-05-28T09:03:28.245Z,17.00
2019-05-28T09:05:58.171Z,17.00
2019-05-28T09:08:38.477Z,17.10
2019-05-28T09:10:59.044Z,17.10
2019-05-28T09:13:28.631Z,17.10
2019-05-28T09:15:58.316Z,17.10
2019-05-28T09:18:27.874Z,17.20
2019-05-28T09:21:00.848Z,17.20
2019-05-28T09:23:30.538Z,17.20
2019-05-28T09:26:00.259Z,17.20
2019-05-28T09:28:31.318Z,17.20
2019-05-28T09:31:01.008Z,17.30
2019-05-28T09:33:30.536Z,17.40
2019-05-28T09:36:08.669Z,17.60
2019-05-28T09:38:33.039Z,17.70
2019-05-28T09:41:05.957Z,17.80
2019-05-28T09:43:34.859Z,17.90
2019-05-28T09:46:05.837Z,17.90
2019-05-28T09:48:35.384Z,18.10
2019-05-28T09:51:05.207Z,18.20
2019-05-28T09:53:35.201Z,18.30
2019-05-28T09:56:04.792Z,18.50
2019-05-28T09:58:34.390Z,18.50
2019-05-28T10:01:03.948Z,18.60
2019-05-28T10:03:33.471Z,18.50
2019-05-28T10:06:16.463Z,18.50
2019-05-28T10:08:34.352Z,18.40
2019-05-28T10:11:03.964Z,18.30
2019-05-28T10:13:39.524Z,18.30
2019-05-28T10:16:04.969Z,18.30
2019-05-28T10:18:36.404Z,18.20
2019-05-28T10:21:17.625Z,18.20
2019-05-28T10:23:37.195Z,18.20
2019-05-28T10:26:06.761Z,18.30
2019-05-28T10:28:36.867Z,18.20
2019-05-28T10:31:06.451Z,18.20
2019-05-28T10:33:36.064Z,18.30
2019-05-28T10:36:05.767Z,18.30
2019-05-28T10:38:35.924Z,18.50
2019-05-28T10:41:06.087Z,18.60
2019-05-28T10:43:35.620Z,18.70
2019-05-28T10:46:07.876Z,18.80
2019-05-28T10:48:37.916Z,18.80
2019-05-28T10:51:07.461Z,18.90
2019-05-28T10:53:36.982Z,18.90
2019-05-28T10:56:06.496Z,18.90
2019-05-28T10:58:36.439Z,19.00
2019-05-28T11:01:06.476Z,19.00
2019-05-28T11:03:36.122Z,19.00
2019-05-28T11:06:05.726Z,19.10
2019-05-28T11:08:35.238Z,19.30
2019-05-28T11:11:05.268Z,19.40
2019-05-28T11:13:34.791Z,19.60
2019-05-28T11:16:05.692Z,19.50
2019-05-28T11:18:35.295Z,19.50
2019-05-28T11:21:09.462Z,19.30
2019-05-28T11:23:36.069Z,19.20
2019-05-28T11:26:05.787Z,19.20
2019-05-28T11:28:35.413Z,19.20
2019-05-28T11:31:04.952Z,19.30
2019-05-28T11:33:34.905Z,19.30
2019-05-28T11:36:04.600Z,19.30
2019-05-28T11:38:34.046Z,19.20
2019-05-28T11:41:03.700Z,19.10
2019-05-28T11:43:33.250Z,19.10
2019-05-28T11:46:02.836Z,19.30
2019-05-28T11:48:32.424Z,19.50
2019-05-28T11:51:04.028Z,19.70
2019-05-28T11:53:36.670Z,19.90
2019-05-28T11:56:04.992Z,20.20
2019-05-28T11:58:34.559Z,20.30
2019-05-28T12:01:04.271Z,20.30
2019-05-28T12:03:34.228Z,20.30
2019-05-28T12:06:03.805Z,20.20
2019-05-28T12:08:33.342Z,20.20
2019-05-28T12:11:02.872Z,20.40
2019-05-28T12:13:32.688Z,20.40
2019-05-28T12:16:02.259Z,20.50
2019-05-28T12:18:31.839Z,20.70
2019-05-28T12:21:01.911Z,20.80
2019-05-28T12:23:31.434Z,20.80
2019-05-28T12:26:01.172Z,20.90
2019-05-28T12:28:37.848Z,21.00
2019-05-28T12:31:02.269Z,21.10
2019-05-28T12:33:31.797Z,21.20
2019-05-28T12:36:01.269Z,21.20
2019-05-28T12:38:30.864Z,21.10
2019-05-28T12:41:01.358Z,21.00
2019-05-28T12:43:31.355Z,21.00
2019-05-28T12:46:01.249Z,21.20
2019-05-28T12:48:30.856Z,21.30
2019-05-28T12:51:02.353Z,21.30
2019-05-28T12:53:48.208Z,21.50
2019-05-28T12:56:02.853Z,21.60
2019-05-28T12:58:42.277Z,21.60
2019-05-28T13:01:03.926Z,21.50
2019-05-28T13:03:33.867Z,21.40
2019-05-28T13:06:03.395Z,21.30
2019-05-28T13:08:32.987Z,21.30
2019-05-28T13:11:02.547Z,21.40
2019-05-28T13:13:32.300Z,21.60
2019-05-28T13:16:01.782Z,21.60
2019-05-28T13:18:31.463Z,21.50
2019-05-28T13:21:01.061Z,21.50
2019-05-28T13:23:30.507Z,21.50
2019-05-28T13:26:00.338Z,21.40
2019-05-28T13:28:29.869Z,21.50
2019-05-28T13:30:59.382Z,21.80
2019-05-28T13:33:28.852Z,21.90
2019-05-28T13:35:58.375Z,22.00
2019-05-28T13:38:28.036Z,21.90
2019-05-28T13:40:57.615Z,21.80
2019-05-28T13:43:27.132Z,21.60
2019-05-28T13:45:56.683Z,21.50
2019-05-28T13:48:26.175Z,21.30
2019-05-28T13:50:55.745Z,21.00
2019-05-28T13:53:25.335Z,20.80
2019-05-28T13:55:54.841Z,20.70
2019-05-28T13:58:24.364Z,20.80
2019-05-28T14:00:53.939Z,20.90
2019-05-28T14:03:23.539Z,21.00
2019-05-28T14:05:53.063Z,21.00
2019-05-28T14:08:22.580Z,21.20
2019-05-28T14:10:52.548Z,21.40
2019-05-28T14:13:22.094Z,21.60
2019-05-28T14:15:51.561Z,21.70
2019-05-28T14:18:24.137Z,21.60
2019-05-28T14:20:56.013Z,21.30
2019-05-28T14:23:25.523Z,21.30
2019-05-28T14:25:55.291Z,21.60
2019-05-28T14:28:24.864Z,21.70
2019-05-28T14:33:30.659Z,21.80
2019-05-28T14:36:00.218Z,21.70
2019-05-28T14:38:29.715Z,21.70
2019-05-28T14:41:00.061Z,21.60
2019-05-28T14:43:29.997Z,21.60
2019-05-28T14:45:59.425Z,21.60
2019-05-28T14:48:28.955Z,21.60
2019-05-28T14:50:58.851Z,21.70
2019-05-28T14:53:28.384Z,21.70
2019-05-28T14:55:57.926Z,21.80
2019-05-28T14:58:27.451Z,21.90
2019-05-28T15:00:57.031Z,21.90
2019-05-28T15:03:26.577Z,22.00
2019-05-28T15:05:56.090Z,22.10
2019-05-28T15:08:25.612Z,22.30
2019-05-28T15:10:55.146Z,22.50
2019-05-28T15:13:24.670Z,22.50
2019-05-28T15:15:54.563Z,22.60
2019-05-28T15:18:24.120Z,22.70
2019-05-28T15:20:53.626Z,22.70
2019-05-28T15:23:23.247Z,22.70
2019-05-28T15:25:52.784Z,22.60
2019-05-28T15:28:22.398Z,22.60
2019-05-28T15:30:51.900Z,22.60
2019-05-28T15:33:21.453Z,22.50
2019-05-28T15:35:50.991Z,22.50
2019-05-28T15:38:20.473Z,22.40
2019-05-28T15:40:50.012Z,22.30
2019-05-28T15:43:19.532Z,22.30
2019-05-28T15:45:55.255Z,22.40
2019-05-28T15:48:24.782Z,22.50
2019-05-28T15:50:54.297Z,22.50
2019-05-28T15:53:23.836Z,22.60
2019-05-28T15:55:53.395Z,22.30
2019-05-28T15:58:22.943Z,22.30
2019-05-28T16:00:52.517Z,22.30
2019-05-28T16:03:23.186Z,22.30
2019-05-28T16:05:52.983Z,22.40
2019-05-28T16:08:22.603Z,22.60
2019-05-28T16:10:52.099Z,22.80
2019-05-28T16:13:21.738Z,23.00
2019-05-28T16:15:51.203Z,23.00
2019-05-28T16:18:20.676Z,22.90
2019-05-28T16:20:50.207Z,22.90
2019-05-28T16:23:19.727Z,23.00
2019-05-28T16:25:49.235Z,22.90
2019-05-28T16:28:19.020Z,22.80
2019-05-28T16:30:48.597Z,22.80
2019-05-28T16:33:18.269Z,22.60
2019-05-28T16:35:48.940Z,22.40
2019-05-28T16:38:18.477Z,22.20
2019-05-28T16:40:48.084Z,22.00
2019-05-28T16:43:17.620Z,21.70
2019-05-28T16:45:47.166Z,21.50
2019-05-28T16:48:16.626Z,21.30
2019-05-28T16:50:46.135Z,21.30
2019-05-28T16:53:15.681Z,21.30
2019-05-28T16:55:45.221Z,21.40
2019-05-28T16:58:14.790Z,21.60
2019-05-28T17:00:44.382Z,21.60
2019-05-28T17:03:13.902Z,21.60
2019-05-28T17:05:43.436Z,21.60
2019-05-28T17:08:13.347Z,22.40
2019-05-28T17:10:42.864Z,23.90
2019-05-28T17:13:12.453Z,24.20
2019-05-28T17:15:41.952Z,24.20
2019-05-28T17:18:11.531Z,24.40
2019-05-28T17:20:41.061Z,25.20
2019-05-28T17:23:10.594Z,26.40
2019-05-28T17:25:40.221Z,27.30
2019-05-28T17:28:09.799Z,27.40
2019-05-28T17:30:39.456Z,27.60
2019-05-28T17:33:08.987Z,28.00
2019-05-28T17:35:38.569Z,28.20
2019-05-28T17:38:08.212Z,28.20
2019-05-28T17:40:47.936Z,28.20
2019-05-28T17:43:08.901Z,28.30
2019-05-28T17:45:39.452Z,28.40
2019-05-28T17:48:09.278Z,28.30
2019-05-28T17:50:39.019Z,27.60
2019-05-28T17:53:08.550Z,26.50
2019-05-28T17:55:38.161Z,25.20
2019-05-28T17:58:07.631Z,24.50
2019-05-28T18:00:37.248Z,23.80
2019-05-28T18:03:06.773Z,23.30
2019-05-28T18:05:36.363Z,22.80
2019-05-28T18:08:05.935Z,22.50
2019-05-28T18:10:35.436Z,22.20
2019-05-28T18:13:05.302Z,21.80
2019-05-28T18:15:34.791Z,21.30
2019-05-28T18:18:04.328Z,21.00
2019-05-28T18:20:33.834Z,20.70
2019-05-28T18:23:03.363Z,20.50
2019-05-28T18:25:32.958Z,20.20
2019-05-28T18:28:02.831Z,20.00
2019-05-28T18:30:32.357Z,19.90
2019-05-28T18:33:01.848Z,19.70
2019-05-28T18:35:31.531Z,19.60
2019-05-28T18:38:04.184Z,19.40
2019-05-28T18:40:32.365Z,19.40
2019-05-28T18:43:02.129Z,19.30
2019-05-28T18:45:31.748Z,19.20
2019-05-28T18:48:06.075Z,19.20
2019-05-28T18:50:35.738Z,19.00
2019-05-28T18:53:05.291Z,19.00
2019-05-28T18:55:41.288Z,18.90
2019-05-28T18:58:11.363Z,18.70
2019-05-28T19:00:40.888Z,18.70
2019-05-28T19:03:10.426Z,18.60
2019-05-28T19:05:39.999Z,18.50
2019-05-28T19:08:09.564Z,18.40
2019-05-28T19:10:39.083Z,18.30
2019-05-28T19:13:08.558Z,18.20
2019-05-28T19:15:38.075Z,18.10
2019-05-28T19:18:07.535Z,17.90
2019-05-28T19:20:36.972Z,17.80
2019-05-28T19:23:06.455Z,17.70
2019-05-28T19:25:36.022Z,17.60
2019-05-28T19:28:05.818Z,17.60
2019-05-28T19:30:35.711Z,17.50
2019-05-28T19:33:05.954Z,17.40
2019-05-28T19:35:35.731Z,17.30
2019-05-28T19:38:05.457Z,17.30
2019-05-28T19:40:36.701Z,17.20
2019-05-28T19:43:07.000Z,17.20
2019-05-28T19:45:37.210Z,17.10
2019-05-28T19:48:07.277Z,17.10
2019-05-28T19:50:36.826Z,17.00
2019-05-28T19:53:06.432Z,16.80
2019-05-28T19:55:35.939Z,16.80
2019-05-28T19:58:06.017Z,16.70
2019-05-28T20:00:35.783Z,16.60
2019-05-28T20:03:05.249Z,16.60
2019-05-28T20:05:34.736Z,16.50
2019-05-28T20:08:04.273Z,16.40
2019-05-28T20:10:33.784Z,16.40
2019-05-28T20:13:03.308Z,16.30
2019-05-28T20:15:32.820Z,16.30
2019-05-28T20:18:02.619Z,16.20
2019-05-28T20:20:32.085Z,16.20
2019-05-28T20:23:01.619Z,16.10
2019-05-28T20:25:31.038Z,16.10
2019-05-28T20:28:00.504Z,16.00
2019-05-28T20:30:30.081Z,15.90
2019-05-28T20:33:01.324Z,15.90
2019-05-28T20:35:31.315Z,15.90
2019-05-28T20:38:04.532Z,15.90
2019-05-28T20:40:31.805Z,15.80
2019-05-28T20:43:04.000Z,15.80
2019-05-28T20:45:33.613Z,15.80
2019-05-28T20:48:02.974Z,15.80
2019-05-28T20:50:32.413Z,15.80
2019-05-28T20:53:02.191Z,15.80
2019-05-28T20:55:33.790Z,15.70
2019-05-28T20:58:03.178Z,15.70
2019-05-28T21:00:32.662Z,15.70
2019-05-28T21:03:02.098Z,15.60
2019-05-28T21:05:31.542Z,15.60
2019-05-28T21:08:01.236Z,15.60
2019-05-28T21:10:30.743Z,15.50
2019-05-28T21:13:00.205Z,15.50
2019-05-28T21:15:29.811Z,15.50
2019-05-28T21:17:59.618Z,15.40
2019-05-28T21:20:29.145Z,15.40
2019-05-28T21:22:58.619Z,15.30
2019-05-28T21:25:30.462Z,15.30
2019-05-28T21:28:01.935Z,15.40
2019-05-28T21:30:31.482Z,15.30
2019-05-28T21:33:01.366Z,15.30
2019-05-28T21:35:32.277Z,15.30
2019-05-28T21:38:01.737Z,15.30
2019-05-28T21:40:31.041Z,15.30
2019-05-28T21:43:07.581Z,15.30
2019-05-28T21:45:31.626Z,15.30
2019-05-28T21:48:01.282Z,15.30
2019-05-28T21:50:30.899Z,15.30
2019-05-28T21:53:04.201Z,15.20
2019-05-28T21:55:33.798Z,15.20
2019-05-28T21:58:04.056Z,15.20
2019-05-28T22:00:44.211Z,15.10
2019-05-28T22:03:13.651Z,15.10
2019-05-28T22:05:43.521Z,15.00
2019-05-28T22:08:12.929Z,15.00
2019-05-28T22:10:42.321Z,14.90
2019-05-28T22:13:20.406Z,14.90
2019-05-28T22:15:42.908Z,14.90
2019-05-28T22:18:12.238Z,14.90
2019-05-28T22:20:41.667Z,15.00
2019-05-28T22:23:11.058Z,14.90
2019-05-28T22:25:40.486Z,14.90
2019-05-28T22:28:09.876Z,14.90
2019-05-28T22:30:39.227Z,14.90
2019-05-28T22:33:08.582Z,14.90
2019-05-28T22:35:37.976Z,14.90
2019-05-28T22:38:07.594Z,14.90
2019-05-28T22:40:37.085Z,14.90
2019-05-28T22:43:06.893Z,14.80
2019-05-28T22:45:41.783Z,14.80
2019-05-28T22:48:14.742Z,14.80
2019-05-28T22:50:38.522Z,14.80
2019-05-28T22:53:08.298Z,14.80
2019-05-28T22:55:37.705Z,14.80
2019-05-28T22:58:08.459Z,14.70
2019-05-28T23:00:39.082Z,14.70
2019-05-28T23:03:09.208Z,14.80
2019-05-28T23:05:38.809Z,14.70
2019-05-28T23:08:08.221Z,14.70
2019-05-28T23:10:37.548Z,14.70
2019-05-28T23:13:07.121Z,14.70
2019-05-28T23:15:36.485Z,14.70
2019-05-28T23:18:07.278Z,14.70
2019-05-28T23:20:36.950Z,14.60
2019-05-28T23:23:07.278Z,14.60
2019-05-28T23:25:36.795Z,14.60
2019-05-28T23:28:06.160Z,14.60
2019-05-28T23:30:35.555Z,14.70
2019-05-28T23:33:06.188Z,14.70
2019-05-28T23:35:35.657Z,14.70
2019-05-28T23:38:06.983Z,14.60
2019-05-28T23:40:36.409Z,14.50
2019-05-28T23:43:05.730Z,14.50
2019-05-28T23:45:35.114Z,14.50
2019-05-28T23:48:10.700Z,14.40
2019-05-28T23:50:35.558Z,14.40
2019-05-28T23:53:05.657Z,14.40
2019-05-28T23:55:35.162Z,14.40
2019-05-28T23:58:05.668Z,14.30
